createdAt,value
2018-07-04T00:02:00.108Z,20.84
2018-07-04T00:05:00.097Z,20.91
2018-07-04T00:08:00.034Z,20.99
2018-07-04T00:11:00.033Z,20.86
2018-07-04T00:13:59.961Z,20.71
2018-07-04T00:16:59.956Z,20.53
2018-07-04T00:19:59.963Z,20.41
2018-07-04T00:22:59.880Z,20.31
2018-07-04T00:25:59.865Z,20.16
2018-07-04T00:28:59.824Z,20.10
2018-07-04T00:31:59.769Z,20.18
2018-07-04T00:34:59.761Z,20.15
2018-07-04T00:37:59.729Z,20.10
2018-07-04T00:40:59.691Z,19.90
2018-07-04T00:43:59.659Z,19.48
2018-07-04T00:46:59.679Z,19.42
2018-07-04T00:49:59.563Z,19.18
2018-07-04T00:52:59.554Z,19.10
2018-07-04T00:55:59.498Z,18.98
2018-07-04T00:58:59.565Z,19.10
2018-07-04T01:01:59.434Z,19.02
2018-07-04T01:04:59.452Z,18.90
2018-07-04T01:07:59.376Z,18.68
2018-07-04T01:10:59.354Z,18.58
2018-07-04T01:13:59.364Z,18.54
2018-07-04T01:16:59.285Z,18.42
2018-07-04T01:19:59.229Z,18.28
2018-07-04T01:22:59.227Z,18.19
2018-07-04T01:25:59.166Z,17.87
2018-07-04T01:28:59.151Z,17.81
2018-07-04T01:31:59.128Z,17.94
2018-07-04T01:34:59.101Z,17.99
2018-07-04T01:37:59.031Z,17.95
2018-07-04T01:40:59.117Z,17.70
2018-07-04T01:43:58.989Z,17.51
2018-07-04T01:46:59.050Z,17.55
2018-07-04T01:49:58.905Z,17.33
2018-07-04T01:52:58.884Z,17.22
2018-07-04T01:55:58.832Z,17.13
2018-07-04T01:58:58.809Z,17.13
2018-07-04T02:01:58.757Z,17.11
2018-07-04T02:04:58.739Z,17.14
2018-07-04T02:07:58.736Z,17.13
2018-07-04T02:10:58.681Z,17.15
2018-07-04T02:13:58.664Z,17.04
2018-07-04T02:16:58.614Z,17.00
2018-07-04T02:19:58.556Z,16.92
2018-07-04T02:22:58.553Z,16.81
2018-07-04T02:25:58.510Z,16.63
2018-07-04T02:28:58.485Z,16.60
2018-07-04T02:31:58.476Z,16.55
2018-07-04T02:34:58.481Z,16.73
2018-07-04T02:37:58.370Z,16.90
2018-07-04T02:40:58.356Z,17.03
2018-07-04T02:43:58.307Z,17.20
2018-07-04T02:46:58.285Z,17.25
2018-07-04T02:49:58.244Z,17.28
2018-07-04T02:52:58.224Z,17.22
2018-07-04T02:55:58.167Z,17.35
2018-07-04T02:58:58.153Z,17.53
2018-07-04T03:01:58.163Z,17.54
2018-07-04T03:04:58.098Z,17.51
2018-07-04T03:07:58.020Z,17.13
2018-07-04T03:10:58.024Z,16.92
2018-07-04T03:13:57.950Z,16.95
2018-07-04T03:16:57.947Z,16.86
2018-07-04T03:19:57.890Z,16.59
2018-07-04T03:22:57.868Z,16.27
2018-07-04T03:25:57.830Z,16.03
2018-07-04T03:28:57.848Z,15.86
2018-07-04T03:31:57.753Z,15.74
2018-07-04T03:34:57.757Z,15.81
2018-07-04T03:37:57.696Z,15.92
2018-07-04T03:40:57.666Z,16.00
2018-07-04T03:43:57.630Z,16.15
2018-07-04T03:46:57.601Z,16.23
2018-07-04T03:49:57.552Z,16.26
2018-07-04T03:52:57.532Z,16.44
2018-07-04T03:55:57.507Z,16.58
2018-07-04T03:58:57.459Z,16.96
2018-07-04T04:01:57.420Z,16.99
2018-07-04T04:04:57.388Z,16.77
2018-07-04T04:07:57.341Z,16.75
2018-07-04T04:10:57.376Z,16.75
2018-07-04T04:13:57.290Z,16.80
2018-07-04T04:16:57.286Z,17.10
2018-07-04T04:19:57.264Z,17.11
2018-07-04T04:22:57.259Z,17.32
2018-07-04T04:25:57.150Z,17.55
2018-07-04T04:28:57.131Z,17.67
2018-07-04T04:31:57.126Z,17.71
2018-07-04T04:34:57.061Z,17.70
2018-07-04T04:37:57.023Z,17.79
2018-07-04T04:40:56.986Z,18.72
2018-07-04T04:43:56.970Z,19.72
2018-07-04T04:46:56.933Z,20.54
2018-07-04T04:49:56.932Z,21.51
2018-07-04T04:52:56.871Z,22.39
2018-07-04T04:55:56.813Z,23.24
2018-07-04T04:58:56.814Z,23.42
2018-07-04T05:01:56.760Z,23.62
2018-07-04T05:04:56.722Z,24.08
2018-07-04T05:07:56.874Z,24.69
2018-07-04T05:10:56.664Z,24.87
2018-07-04T05:13:56.617Z,25.54
2018-07-04T05:16:56.610Z,25.35
2018-07-04T05:19:56.552Z,25.13
2018-07-04T05:22:56.543Z,25.38
2018-07-04T05:25:56.488Z,26.35
2018-07-04T05:28:56.461Z,25.52
2018-07-04T05:31:56.425Z,24.52
2018-07-04T05:34:56.420Z,24.12
2018-07-04T05:37:56.363Z,24.34
2018-07-04T05:40:56.373Z,25.39
2018-07-04T05:43:56.297Z,25.83
2018-07-04T05:46:56.278Z,26.39
2018-07-04T05:49:56.229Z,26.05
2018-07-04T05:52:56.219Z,25.12
2018-07-04T05:55:56.208Z,24.45
2018-07-04T05:58:56.184Z,24.29
2018-07-04T06:01:56.138Z,24.67
2018-07-04T06:04:56.115Z,24.76
2018-07-04T06:07:56.053Z,24.27
2018-07-04T06:10:56.023Z,23.49
2018-07-04T06:13:55.996Z,23.45
2018-07-04T06:16:55.960Z,23.72
2018-07-04T06:19:55.923Z,24.17
2018-07-04T06:22:55.891Z,24.94
2018-07-04T06:25:55.881Z,24.94
2018-07-04T06:28:55.823Z,25.77
2018-07-04T06:31:55.772Z,25.75
2018-07-04T06:34:55.767Z,25.00
2018-07-04T06:37:55.713Z,24.95
2018-07-04T06:40:55.706Z,25.25
2018-07-04T06:43:55.670Z,25.37
2018-07-04T06:46:55.638Z,25.00
2018-07-04T06:49:55.598Z,25.39
2018-07-04T06:52:55.568Z,25.80
2018-07-04T06:55:55.526Z,26.52
2018-07-04T06:58:55.501Z,27.76
2018-07-04T07:01:55.514Z,27.86
2018-07-04T07:04:55.458Z,27.77
2018-07-04T07:07:55.571Z,28.29
2018-07-04T07:10:55.371Z,27.48
2018-07-04T07:13:55.369Z,26.94
2018-07-04T07:16:55.324Z,26.49
2018-07-04T07:19:55.299Z,26.76
2018-07-04T07:22:55.260Z,27.10
2018-07-04T07:25:55.227Z,27.29
2018-07-04T07:28:55.214Z,27.77
2018-07-04T07:31:55.144Z,27.82
2018-07-04T07:34:55.132Z,28.65
2018-07-04T07:37:55.444Z,31.20
2018-07-04T07:40:55.058Z,32.10
2018-07-04T07:43:55.011Z,30.78
2018-07-04T07:46:55.013Z,29.78
2018-07-04T07:49:54.953Z,29.53
2018-07-04T07:52:54.963Z,30.14
2018-07-04T07:55:54.907Z,29.90
2018-07-04T07:58:54.882Z,29.55
2018-07-04T08:01:54.865Z,28.44
2018-07-04T08:04:54.836Z,28.43
2018-07-04T08:07:54.805Z,29.43
2018-07-04T08:10:54.763Z,28.60
2018-07-04T08:13:54.712Z,28.84
2018-07-04T08:16:54.722Z,27.89
2018-07-04T08:19:54.665Z,27.79
2018-07-04T08:22:54.648Z,27.20
2018-07-04T08:25:54.606Z,26.37
2018-07-04T08:28:54.581Z,26.25
2018-07-04T08:31:54.542Z,26.06
2018-07-04T08:34:54.506Z,26.31
2018-07-04T08:37:54.472Z,26.57
2018-07-04T08:40:54.458Z,25.94
2018-07-04T08:43:54.419Z,25.35
2018-07-04T08:46:54.379Z,25.02
2018-07-04T08:49:54.342Z,25.07
2018-07-04T08:52:54.375Z,25.34
2018-07-04T08:55:54.275Z,25.65
2018-07-04T08:58:54.325Z,26.01
2018-07-04T09:01:54.216Z,26.64
2018-07-04T09:04:54.193Z,27.23
2018-07-04T09:07:54.143Z,27.64
2018-07-04T09:10:54.134Z,27.73
2018-07-04T09:13:54.090Z,27.58
2018-07-04T09:16:54.087Z,27.88
2018-07-04T09:19:54.018Z,28.31
2018-07-04T09:22:54.009Z,29.08
2018-07-04T09:25:53.962Z,29.31
2018-07-04T09:28:53.949Z,29.41
2018-07-04T09:31:53.899Z,29.15
2018-07-04T09:34:53.898Z,29.22
2018-07-04T09:37:53.831Z,28.72
2018-07-04T09:40:53.831Z,29.15
2018-07-04T09:43:53.835Z,29.53
2018-07-04T09:46:53.762Z,30.49
2018-07-04T09:49:53.729Z,30.40
2018-07-04T09:52:53.720Z,30.81
2018-07-04T09:55:53.668Z,30.93
2018-07-04T09:58:53.813Z,31.67
2018-07-04T10:01:53.610Z,32.20
2018-07-04T10:04:53.592Z,31.27
2018-07-04T10:07:53.709Z,31.62
2018-07-04T10:10:53.528Z,31.95
2018-07-04T10:13:53.498Z,30.30
2018-07-04T10:16:53.481Z,31.04
2018-07-04T10:19:53.442Z,32.27
2018-07-04T10:22:53.433Z,33.37
2018-07-04T10:25:53.422Z,33.90
2018-07-04T10:28:53.369Z,34.77
2018-07-04T10:31:53.344Z,34.16
2018-07-04T10:34:53.375Z,32.58
2018-07-04T10:37:53.298Z,31.43
2018-07-04T10:40:53.270Z,31.98
2018-07-04T10:43:53.262Z,33.14
2018-07-04T10:46:53.234Z,32.93
2018-07-04T10:49:53.197Z,33.33
2018-07-04T10:52:53.179Z,35.08
2018-07-04T10:55:53.134Z,35.10
2018-07-04T10:58:53.145Z,34.72
2018-07-04T11:01:53.090Z,35.26
2018-07-04T11:04:53.079Z,34.72
2018-07-04T11:07:53.292Z,33.64
2018-07-04T11:10:53.029Z,33.74
2018-07-04T11:13:52.989Z,32.14
2018-07-04T11:16:53.096Z,30.98
2018-07-04T11:19:52.931Z,29.19
2018-07-04T11:22:52.917Z,29.19
2018-07-04T11:25:52.890Z,29.38
2018-07-04T11:28:52.906Z,29.26
2018-07-04T11:31:52.827Z,28.97
2018-07-04T11:34:52.815Z,29.11
2018-07-04T11:37:53.520Z,28.60
2018-07-04T11:40:52.738Z,28.69
2018-07-04T11:43:52.688Z,28.91
2018-07-04T11:46:52.703Z,28.85
2018-07-04T11:49:52.633Z,28.93
2018-07-04T11:52:52.656Z,28.93
2018-07-04T11:55:52.594Z,28.68
2018-07-04T11:58:52.591Z,28.28
2018-07-04T12:01:52.606Z,28.28
2018-07-04T12:04:52.507Z,28.56
2018-07-04T12:07:52.451Z,28.73
2018-07-04T12:10:52.459Z,29.08
2018-07-04T12:13:52.393Z,29.01
2018-07-04T12:16:52.380Z,28.66
2018-07-04T12:19:52.311Z,29.22
2018-07-04T12:22:52.300Z,29.34
2018-07-04T12:25:52.245Z,29.47
2018-07-04T12:28:52.227Z,29.60
2018-07-04T12:31:52.203Z,29.68
2018-07-04T12:34:52.163Z,29.96
2018-07-04T12:37:52.283Z,30.11
2018-07-04T12:40:52.098Z,30.03
2018-07-04T12:43:52.064Z,30.65
2018-07-04T12:46:52.055Z,30.68
2018-07-04T12:49:52.004Z,30.36
2018-07-04T12:52:52.013Z,30.94
2018-07-04T12:55:51.933Z,31.04
2018-07-04T12:58:51.936Z,30.83
2018-07-04T13:01:51.875Z,31.35
2018-07-04T13:04:51.869Z,31.40
2018-07-04T13:07:51.820Z,31.60
2018-07-04T13:10:51.792Z,31.23
2018-07-04T13:13:51.753Z,30.57
2018-07-04T13:16:51.733Z,30.61
2018-07-04T13:19:51.693Z,30.78
2018-07-04T13:22:51.673Z,31.35
2018-07-04T13:25:52.525Z,31.01
2018-07-04T13:28:51.610Z,30.86
2018-07-04T13:31:51.579Z,30.71
2018-07-04T13:34:51.551Z,29.99
2018-07-04T13:37:51.766Z,29.55
2018-07-04T13:40:51.492Z,29.57
2018-07-04T13:43:51.445Z,29.87
2018-07-04T13:46:51.435Z,29.84
2018-07-04T13:49:51.474Z,29.84
2018-07-04T13:52:51.366Z,29.96
2018-07-04T13:55:51.340Z,29.90
2018-07-04T13:58:51.304Z,30.30
2018-07-04T14:01:51.358Z,30.26
2018-07-04T14:04:51.254Z,29.82
2018-07-04T14:07:51.198Z,30.00
2018-07-04T14:10:51.205Z,29.90
2018-07-04T14:13:51.150Z,29.77
2018-07-04T14:16:51.128Z,29.72
2018-07-04T14:19:51.075Z,29.97
2018-07-04T14:22:51.077Z,29.78
2018-07-04T14:25:51.018Z,29.70
2018-07-04T14:28:51.004Z,29.55
2018-07-04T14:31:50.950Z,29.84
2018-07-04T14:34:50.945Z,29.62
2018-07-04T14:37:51.261Z,29.81
2018-07-04T14:40:50.877Z,29.41
2018-07-04T14:43:50.830Z,29.74
2018-07-04T14:46:50.829Z,29.72
2018-07-04T14:49:50.780Z,29.86
2018-07-04T14:52:50.761Z,29.63
2018-07-04T14:55:50.708Z,29.35
2018-07-04T14:58:50.711Z,29.60
2018-07-04T15:01:50.659Z,29.66
2018-07-04T15:04:50.641Z,30.24
2018-07-04T15:07:50.852Z,29.55
2018-07-04T15:10:50.584Z,29.41
2018-07-04T15:13:50.525Z,29.43
2018-07-04T15:16:50.529Z,29.53
2018-07-04T15:19:50.469Z,29.28
2018-07-04T15:22:50.447Z,29.29
2018-07-04T15:25:50.411Z,29.79
2018-07-04T15:28:50.391Z,29.94
2018-07-04T15:31:50.346Z,30.21
2018-07-04T15:34:50.323Z,30.43
2018-07-04T15:37:50.450Z,30.36
2018-07-04T15:40:50.286Z,30.23
2018-07-04T15:43:50.225Z,30.52
2018-07-04T15:46:50.203Z,30.81
2018-07-04T15:49:50.177Z,30.53
2018-07-04T15:52:50.168Z,30.96
2018-07-04T15:55:50.103Z,30.74
2018-07-04T15:58:50.081Z,31.18
2018-07-04T16:01:50.049Z,30.84
2018-07-04T16:04:50.032Z,31.05
2018-07-04T16:07:50.351Z,31.38
2018-07-04T16:10:49.956Z,31.31
2018-07-04T16:13:49.971Z,31.73
2018-07-04T16:16:49.905Z,32.02
2018-07-04T16:19:49.925Z,32.00
2018-07-04T16:22:49.848Z,31.92
2018-07-04T16:25:49.826Z,31.62
2018-07-04T16:28:49.790Z,31.75
2018-07-04T16:31:49.744Z,32.62
2018-07-04T16:34:49.745Z,33.14
2018-07-04T16:37:49.690Z,32.93
2018-07-04T16:40:49.676Z,32.57
2018-07-04T16:43:49.623Z,32.76
2018-07-04T16:46:49.627Z,33.49
2018-07-04T16:49:49.602Z,33.82
2018-07-04T16:52:49.568Z,34.73
2018-07-04T16:55:49.522Z,34.94
2018-07-04T16:58:49.517Z,34.89
2018-07-04T17:01:49.459Z,34.88
2018-07-04T17:04:49.439Z,33.76
2018-07-04T17:07:49.412Z,32.62
2018-07-04T17:10:49.385Z,33.31
2018-07-04T17:13:49.354Z,33.48
2018-07-04T17:16:49.353Z,33.14
2018-07-04T17:19:49.291Z,32.84
2018-07-04T17:22:49.380Z,32.14
2018-07-04T17:25:49.230Z,32.30
2018-07-04T17:28:49.219Z,32.61
2018-07-04T17:31:49.195Z,32.91
2018-07-04T17:34:49.172Z,32.58
2018-07-04T17:37:49.118Z,31.49
2018-07-04T17:40:49.104Z,31.28
2018-07-04T17:43:49.064Z,30.56
2018-07-04T17:46:49.032Z,30.61
2018-07-04T17:49:49.047Z,31.55
2018-07-04T17:52:48.967Z,32.55
2018-07-04T17:55:48.936Z,31.99
2018-07-04T17:58:48.922Z,31.48
2018-07-04T18:01:48.867Z,31.40
2018-07-04T18:04:48.840Z,31.53
2018-07-04T18:07:48.797Z,31.75
2018-07-04T18:10:48.800Z,31.45
2018-07-04T18:13:48.760Z,31.28
2018-07-04T18:16:48.794Z,29.71
2018-07-04T18:19:48.676Z,29.11
2018-07-04T18:22:48.693Z,28.75
2018-07-04T18:25:48.621Z,28.59
2018-07-04T18:28:49.556Z,28.40
2018-07-04T18:31:48.576Z,28.23
2018-07-04T18:34:48.548Z,27.86
2018-07-04T18:37:48.623Z,27.51
2018-07-04T18:40:48.467Z,27.38
2018-07-04T18:43:48.528Z,27.24
2018-07-04T18:46:48.402Z,27.10
2018-07-04T18:49:48.370Z,27.10
2018-07-04T18:52:48.346Z,26.95
2018-07-04T18:55:48.345Z,26.81
2018-07-04T18:58:48.306Z,26.84
2018-07-04T19:01:48.355Z,26.84
2018-07-04T19:04:48.335Z,26.81
2018-07-04T19:07:48.617Z,26.77
2018-07-04T19:10:48.254Z,26.68
2018-07-04T19:13:48.184Z,26.58
2018-07-04T19:16:48.153Z,26.42
2018-07-04T19:19:48.123Z,26.08
2018-07-04T19:22:48.089Z,25.97
2018-07-04T19:25:48.020Z,25.84
2018-07-04T19:28:48.045Z,25.69
2018-07-04T19:31:47.975Z,25.54
2018-07-04T19:34:47.929Z,25.38
2018-07-04T19:37:47.901Z,25.37
2018-07-04T19:40:47.836Z,25.16
2018-07-04T19:43:47.830Z,24.64
2018-07-04T19:46:47.780Z,24.19
2018-07-04T19:49:47.807Z,24.01
2018-07-04T19:52:47.687Z,23.86
2018-07-04T19:55:47.711Z,23.92
2018-07-04T19:58:47.623Z,23.68
2018-07-04T20:01:47.624Z,23.70
2018-07-04T20:04:47.567Z,23.49
2018-07-04T20:07:47.587Z,23.42
2018-07-04T20:10:47.529Z,23.23
2018-07-04T20:13:47.500Z,23.07
2018-07-04T20:16:47.421Z,23.09
2018-07-04T20:19:47.369Z,23.02
2018-07-04T20:22:47.351Z,23.02
2018-07-04T20:25:47.311Z,22.96
2018-07-04T20:28:47.296Z,22.89
2018-07-04T20:31:47.242Z,22.77
2018-07-04T20:34:47.225Z,22.62
2018-07-04T20:37:47.349Z,22.60
2018-07-04T20:40:47.157Z,22.49
2018-07-04T20:43:47.162Z,22.37
2018-07-04T20:46:47.106Z,22.25
2018-07-04T20:49:47.041Z,22.22
2018-07-04T20:52:47.069Z,22.28
2018-07-04T20:55:47.064Z,22.06
2018-07-04T20:58:46.991Z,22.09
2018-07-04T21:01:46.920Z,22.10
2018-07-04T21:04:46.910Z,22.09
2018-07-04T21:07:46.853Z,22.01
2018-07-04T21:10:46.870Z,22.19
2018-07-04T21:13:46.802Z,22.20
2018-07-04T21:16:46.769Z,22.38
2018-07-04T21:19:46.720Z,22.43
2018-07-04T21:22:46.728Z,22.37
2018-07-04T21:25:46.658Z,22.22
2018-07-04T21:28:46.643Z,22.38
2018-07-04T21:31:46.597Z,22.53
2018-07-04T21:34:46.557Z,22.59
2018-07-04T21:37:46.789Z,22.60
2018-07-04T21:40:46.490Z,22.92
2018-07-04T21:43:46.448Z,23.20
2018-07-04T21:46:46.475Z,23.38
2018-07-04T21:49:48.042Z,23.40
2018-07-04T21:52:47.038Z,23.29
2018-07-04T21:55:46.313Z,23.17
2018-07-04T21:58:46.319Z,23.05
2018-07-04T22:01:46.246Z,23.04
2018-07-04T22:04:46.216Z,22.90
2018-07-04T22:07:46.217Z,22.90
2018-07-04T22:10:46.152Z,22.89
2018-07-04T22:13:46.121Z,22.89
2018-07-04T22:16:46.094Z,22.96
2018-07-04T22:19:46.046Z,22.96
2018-07-04T22:22:46.022Z,22.99
2018-07-04T22:25:45.975Z,23.11
2018-07-04T22:28:45.969Z,23.08
2018-07-04T22:31:45.923Z,23.08
2018-07-04T22:34:45.919Z,23.23
2018-07-04T22:37:45.966Z,22.99
2018-07-04T22:40:46.083Z,22.75
2018-07-04T22:43:45.800Z,22.62
2018-07-04T22:46:45.780Z,22.62
2018-07-04T22:49:45.708Z,22.59
2018-07-04T22:52:45.743Z,22.74
2018-07-04T22:55:45.651Z,22.64
2018-07-04T22:58:45.655Z,22.71
2018-07-04T23:01:45.574Z,22.72
2018-07-04T23:04:45.591Z,22.59
2018-07-04T23:07:45.880Z,22.38
2018-07-04T23:10:45.505Z,22.19
2018-07-04T23:13:45.450Z,22.01
2018-07-04T23:16:45.438Z,21.88
2018-07-04T23:19:45.385Z,21.67
2018-07-04T23:22:45.357Z,21.50
2018-07-04T23:25:45.332Z,21.32
2018-07-04T23:28:45.302Z,21.17
2018-07-04T23:31:45.255Z,21.05
2018-07-04T23:34:45.236Z,20.86
2018-07-04T23:37:45.445Z,20.68
2018-07-04T23:40:45.156Z,20.69
2018-07-04T23:43:45.120Z,20.65
2018-07-04T23:46:45.103Z,20.61
2018-07-04T23:49:45.042Z,20.59
2018-07-04T23:52:45.038Z,20.53
2018-07-04T23:55:45.004Z,20.50
2018-07-04T23:58:44.961Z,20.46
